sensor_id;sensor_type;location;lat;lon;timestamp;P1;durP1;ratioP1;P2;durP2;ratioP2
35743;SDS011;21867;52.012;4.324;2024-03-06T00:00:00;21.25;;;18.30;;
35743;SDS011;21867;52.012;4.324;2024-03-06T00:02:29;21.80;;;17.43;;
35743;SDS011;21867;52.012;4.324;2024-03-06T00:04:57;18.73;;;16.43;;
35743;SDS011;21867;52.012;4.324;2024-03-06T00:07:24;20.20;;;17.43;;
35743;SDS011;21867;52.012;4.324;2024-03-06T00:09:53;20.87;;;18.33;;
35743;SDS011;21867;52.012;4.324;2024-03-06T00:12:20;18.63;;;16.63;;
35743;SDS011;21867;52.012;4.324;2024-03-06T00:14:48;19.77;;;16.63;;
35743;SDS011;21867;52.012;4.324;2024-03-06T00:17:18;18.77;;;16.87;;
35743;SDS011;21867;52.012;4.324;2024-03-06T00:19:45;19.60;;;16.87;;
35743;SDS011;21867;52.012;4.324;2024-03-06T00:22:12;22.20;;;18.93;;
35743;SDS011;21867;52.012;4.324;2024-03-06T00:24:40;19.67;;;17.60;;
35743;SDS011;21867;52.012;4.324;2024-03-06T00:27:09;19.40;;;16.13;;
35743;SDS011;21867;52.012;4.324;2024-03-06T00:29:36;20.27;;;16.90;;
35743;SDS011;21867;52.012;4.324;2024-03-06T00:32:04;20.37;;;16.37;;
35743;SDS011;21867;52.012;4.324;2024-03-06T00:34:31;18.20;;;16.30;;
35743;SDS011;21867;52.012;4.324;2024-03-06T00:36:58;18.30;;;15.50;;
35743;SDS011;21867;52.012;4.324;2024-03-06T00:39:26;17.87;;;14.77;;
35743;SDS011;21867;52.012;4.324;2024-03-06T00:41:53;16.57;;;14.87;;
35743;SDS011;21867;52.012;4.324;2024-03-06T00:47:15;15.87;;;14.27;;
35743;SDS011;21867;52.012;4.324;2024-03-06T00:49:43;18.93;;;15.03;;
35743;SDS011;21867;52.012;4.324;2024-03-06T00:52:10;16.43;;;14.17;;
35743;SDS011;21867;52.012;4.324;2024-03-06T00:54:38;17.20;;;15.40;;
35743;SDS011;21867;52.012;4.324;2024-03-06T00:57:05;18.13;;;15.63;;
35743;SDS011;21867;52.012;4.324;2024-03-06T01:02:23;16.63;;;14.93;;
35743;SDS011;21867;52.012;4.324;2024-03-06T01:04:51;16.57;;;14.17;;
35743;SDS011;21867;52.012;4.324;2024-03-06T01:07:18;15.70;;;14.00;;
35743;SDS011;21867;52.012;4.324;2024-03-06T01:09:45;18.30;;;16.13;;
35743;SDS011;21867;52.012;4.324;2024-03-06T01:12:13;16.53;;;14.80;;
35743;SDS011;21867;52.012;4.324;2024-03-06T01:14:40;17.43;;;15.23;;
35743;SDS011;21867;52.012;4.324;2024-03-06T01:17:07;19.03;;;15.97;;
35743;SDS011;21867;52.012;4.324;2024-03-06T01:19:36;18.03;;;16.13;;
35743;SDS011;21867;52.012;4.324;2024-03-06T01:22:04;17.17;;;14.97;;
35743;SDS011;21867;52.012;4.324;2024-03-06T01:24:31;19.37;;;15.43;;
35743;SDS011;21867;52.012;4.324;2024-03-06T01:35:28;16.70;;;15.00;;
35743;SDS011;21867;52.012;4.324;2024-03-06T01:37:55;18.47;;;16.07;;
35743;SDS011;21867;52.012;4.324;2024-03-06T01:40:23;16.03;;;14.33;;
35743;SDS011;21867;52.012;4.324;2024-03-06T01:42:50;17.23;;;14.70;;
35743;SDS011;21867;52.012;4.324;2024-03-06T01:45:18;18.67;;;15.77;;
35743;SDS011;21867;52.012;4.324;2024-03-06T01:47:45;17.87;;;15.97;;
35743;SDS011;21867;52.012;4.324;2024-03-06T01:50:18;17.43;;;15.70;;
35743;SDS011;21867;52.012;4.324;2024-03-06T01:52:47;17.77;;;14.90;;
35743;SDS011;21867;52.012;4.324;2024-03-06T01:55:16;17.37;;;15.57;;
35743;SDS011;21867;52.012;4.324;2024-03-06T01:57:48;19.20;;;17.20;;
35743;SDS011;21867;52.012;4.324;2024-03-06T02:05:43;21.43;;;17.27;;
35743;SDS011;21867;52.012;4.324;2024-03-06T02:08:12;17.60;;;15.80;;
35743;SDS011;21867;52.012;4.324;2024-03-06T02:10:39;19.17;;;17.17;;
35743;SDS011;21867;52.012;4.324;2024-03-06T02:13:07;21.50;;;17.63;;
35743;SDS011;21867;52.012;4.324;2024-03-06T02:15:34;18.97;;;16.67;;
35743;SDS011;21867;52.012;4.324;2024-03-06T02:18:05;21.27;;;17.63;;
35743;SDS011;21867;52.012;4.324;2024-03-06T02:20:57;21.33;;;17.93;;
35743;SDS011;21867;52.012;4.324;2024-03-06T02:23:25;19.57;;;17.50;;
35743;SDS011;21867;52.012;4.324;2024-03-06T02:25:52;19.23;;;16.60;;
35743;SDS011;21867;52.012;4.324;2024-03-06T02:28:32;20.50;;;17.93;;
35743;SDS011;21867;52.012;4.324;2024-03-06T02:34:36;17.70;;;15.80;;
35743;SDS011;21867;52.012;4.324;2024-03-06T02:37:05;18.83;;;16.83;;
35743;SDS011;21867;52.012;4.324;2024-03-06T02:39:32;19.17;;;17.17;;
35743;SDS011;21867;52.012;4.324;2024-03-06T02:42:00;23.13;;;20.73;;
35743;SDS011;21867;52.012;4.324;2024-03-06T02:44:27;21.93;;;19.03;;
35743;SDS011;21867;52.012;4.324;2024-03-06T02:46:55;22.33;;;18.90;;
35743;SDS011;21867;52.012;4.324;2024-03-06T02:49:24;23.67;;;19.20;;
35743;SDS011;21867;52.012;4.324;2024-03-06T02:51:52;21.30;;;18.00;;
35743;SDS011;21867;52.012;4.324;2024-03-06T02:54:20;22.47;;;19.50;;
35743;SDS011;21867;52.012;4.324;2024-03-06T02:56:48;25.10;;;20.67;;
35743;SDS011;21867;52.012;4.324;2024-03-06T02:59:30;20.53;;;18.10;;
35743;SDS011;21867;52.012;4.324;2024-03-06T03:02:23;20.53;;;17.63;;
35743;SDS011;21867;52.012;4.324;2024-03-06T03:04:51;20.63;;;17.80;;
35743;SDS011;21867;52.012;4.324;2024-03-06T03:07:19;21.07;;;18.87;;
35743;SDS011;21867;52.012;4.324;2024-03-06T03:09:48;22.40;;;19.03;;
35743;SDS011;21867;52.012;4.324;2024-03-06T03:12:16;22.57;;;19.03;;
35743;SDS011;21867;52.012;4.324;2024-03-06T03:14:43;25.63;;;21.50;;
35743;SDS011;21867;52.012;4.324;2024-03-06T03:17:20;28.40;;;23.30;;
35743;SDS011;21867;52.012;4.324;2024-03-06T03:19:47;26.10;;;21.60;;
35743;SDS011;21867;52.012;4.324;2024-03-06T03:22:15;24.97;;;21.93;;
35743;SDS011;21867;52.012;4.324;2024-03-06T03:24:42;24.40;;;21.80;;
35743;SDS011;21867;52.012;4.324;2024-03-06T03:27:11;23.17;;;20.47;;
35743;SDS011;21867;52.012;4.324;2024-03-06T03:32:26;26.83;;;22.27;;
35743;SDS011;21867;52.012;4.324;2024-03-06T03:34:53;29.63;;;22.70;;
35743;SDS011;21867;52.012;4.324;2024-03-06T03:37:21;27.90;;;24.03;;
35743;SDS011;21867;52.012;4.324;2024-03-06T03:39:48;27.60;;;23.50;;
35743;SDS011;21867;52.012;4.324;2024-03-06T03:42:17;25.77;;;22.40;;
35743;SDS011;21867;52.012;4.324;2024-03-06T03:44:45;26.10;;;21.83;;
35743;SDS011;21867;52.012;4.324;2024-03-06T03:49:54;25.57;;;21.67;;
35743;SDS011;21867;52.012;4.324;2024-03-06T03:52:35;27.07;;;23.57;;
35743;SDS011;21867;52.012;4.324;2024-03-06T03:55:02;25.40;;;21.23;;
35743;SDS011;21867;52.012;4.324;2024-03-06T04:03:24;27.63;;;23.57;;
35743;SDS011;21867;52.012;4.324;2024-03-06T04:05:52;28.10;;;23.93;;
35743;SDS011;21867;52.012;4.324;2024-03-06T04:08:19;24.93;;;22.30;;
35743;SDS011;21867;52.012;4.324;2024-03-06T04:10:46;26.77;;;22.67;;
35743;SDS011;21867;52.012;4.324;2024-03-06T04:13:15;26.97;;;23.03;;
35743;SDS011;21867;52.012;4.324;2024-03-06T04:15:42;22.10;;;19.70;;
35743;SDS011;21867;52.012;4.324;2024-03-06T04:18:10;23.20;;;20.57;;
35743;SDS011;21867;52.012;4.324;2024-03-06T04:20:39;25.47;;;22.23;;
35743;SDS011;21867;52.012;4.324;2024-03-06T04:23:06;24.30;;;21.27;;
35743;SDS011;21867;52.012;4.324;2024-03-06T04:25:33;26.03;;;23.33;;
35743;SDS011;21867;52.012;4.324;2024-03-06T04:31:01;22.93;;;19.70;;
35743;SDS011;21867;52.012;4.324;2024-03-06T04:33:29;26.07;;;21.77;;
35743;SDS011;21867;52.012;4.324;2024-03-06T04:36:00;23.63;;;21.13;;
35743;SDS011;21867;52.012;4.324;2024-03-06T04:38:27;22.90;;;20.40;;
35743;SDS011;21867;52.012;4.324;2024-03-06T04:40:54;22.67;;;20.27;;
35743;SDS011;21867;52.012;4.324;2024-03-06T04:43:22;25.23;;;22.03;;
35743;SDS011;21867;52.012;4.324;2024-03-06T04:48:45;22.60;;;20.20;;
35743;SDS011;21867;52.012;4.324;2024-03-06T04:51:14;25.77;;;21.53;;
35743;SDS011;21867;52.012;4.324;2024-03-06T04:53:41;23.93;;;21.27;;
35743;SDS011;21867;52.012;4.324;2024-03-06T04:56:09;24.13;;;21.53;;
35743;SDS011;21867;52.012;4.324;2024-03-06T04:58:36;22.17;;;19.87;;
35743;SDS011;21867;52.012;4.324;2024-03-06T05:01:03;23.37;;;20.93;;
35743;SDS011;21867;52.012;4.324;2024-03-06T05:07:08;23.23;;;20.77;;
35743;SDS011;21867;52.012;4.324;2024-03-06T05:09:53;25.97;;;21.80;;
35743;SDS011;21867;52.012;4.324;2024-03-06T05:12:37;20.97;;;17.97;;
35743;SDS011;21867;52.012;4.324;2024-03-06T05:15:22;22.60;;;19.27;;
35743;SDS011;21867;52.012;4.324;2024-03-06T05:18:11;22.20;;;19.77;;
35743;SDS011;21867;52.012;4.324;2024-03-06T05:20:56;22.60;;;19.67;;
35743;SDS011;21867;52.012;4.324;2024-03-06T05:23:42;20.43;;;17.63;;
35743;SDS011;21867;52.012;4.324;2024-03-06T05:26:27;22.83;;;19.33;;
35743;SDS011;21867;52.012;4.324;2024-03-06T05:29:12;22.07;;;19.73;;
35743;SDS011;21867;52.012;4.324;2024-03-06T05:31:57;27.03;;;21.63;;
35743;SDS011;21867;52.012;4.324;2024-03-06T05:34:42;22.63;;;19.33;;
35743;SDS011;21867;52.012;4.324;2024-03-06T05:37:27;22.83;;;19.90;;
35743;SDS011;21867;52.012;4.324;2024-03-06T05:40:13;23.20;;;20.80;;
35743;SDS011;21867;52.012;4.324;2024-03-06T05:42:58;25.30;;;20.40;;
35743;SDS011;21867;52.012;4.324;2024-03-06T05:45:43;21.83;;;19.50;;
35743;SDS011;21867;52.012;4.324;2024-03-06T05:48:28;21.83;;;18.80;;
35743;SDS011;21867;52.012;4.324;2024-03-06T05:51:13;23.77;;;20.03;;
35743;SDS011;21867;52.012;4.324;2024-03-06T05:53:58;21.60;;;19.33;;
35743;SDS011;21867;52.012;4.324;2024-03-06T05:56:44;21.70;;;19.37;;
35743;SDS011;21867;52.012;4.324;2024-03-06T05:59:29;24.77;;;20.17;;
35743;SDS011;21867;52.012;4.324;2024-03-06T06:01:59;28.37;;;19.43;;
35743;SDS011;21867;52.012;4.324;2024-03-06T06:04:27;24.20;;;19.53;;
35743;SDS011;21867;52.012;4.324;2024-03-06T06:06:54;20.87;;;18.53;;
35743;SDS011;21867;52.012;4.324;2024-03-06T06:09:22;22.37;;;19.07;;
35743;SDS011;21867;52.012;4.324;2024-03-06T06:11:50;23.13;;;19.73;;
35743;SDS011;21867;52.012;4.324;2024-03-06T06:14:18;21.50;;;19.13;;
35743;SDS011;21867;52.012;4.324;2024-03-06T06:16:51;20.37;;;18.17;;
35743;SDS011;21867;52.012;4.324;2024-03-06T06:19:18;19.50;;;17.37;;
35743;SDS011;21867;52.012;4.324;2024-03-06T06:21:46;20.50;;;18.30;;
35743;SDS011;21867;52.012;4.324;2024-03-06T06:24:13;23.00;;;18.93;;
35743;SDS011;21867;52.012;4.324;2024-03-06T06:26:46;21.30;;;17.60;;
35743;SDS011;21867;52.012;4.324;2024-03-06T06:29:29;24.47;;;17.63;;
35743;SDS011;21867;52.012;4.324;2024-03-06T06:32:11;24.93;;;17.17;;
35743;SDS011;21867;52.012;4.324;2024-03-06T06:34:38;22.13;;;17.90;;
35743;SDS011;21867;52.012;4.324;2024-03-06T06:37:06;20.20;;;18.03;;
35743;SDS011;21867;52.012;4.324;2024-03-06T06:39:33;22.13;;;16.27;;
35743;SDS011;21867;52.012;4.324;2024-03-06T06:42:00;19.43;;;17.33;;
35743;SDS011;21867;52.012;4.324;2024-03-06T06:44:29;20.20;;;16.20;;
35743;SDS011;21867;52.012;4.324;2024-03-06T06:46:56;20.23;;;17.47;;
35743;SDS011;21867;52.012;4.324;2024-03-06T06:49:24;20.80;;;17.17;;
35743;SDS011;21867;52.012;4.324;2024-03-06T06:51:53;19.83;;;16.80;;
35743;SDS011;21867;52.012;4.324;2024-03-06T06:54:21;23.70;;;16.53;;
35743;SDS011;21867;52.012;4.324;2024-03-06T06:56:48;19.43;;;16.73;;
35743;SDS011;21867;52.012;4.324;2024-03-06T06:59:16;20.63;;;17.03;;
35743;SDS011;21867;52.012;4.324;2024-03-06T07:01:45;19.53;;;16.90;;
35743;SDS011;21867;52.012;4.324;2024-03-06T07:04:12;18.37;;;16.47;;
35743;SDS011;21867;52.012;4.324;2024-03-06T07:06:40;18.73;;;16.80;;
35743;SDS011;21867;52.012;4.324;2024-03-06T07:09:07;20.30;;;16.83;;
35743;SDS011;21867;52.012;4.324;2024-03-06T07:11:34;17.90;;;15.20;;
35743;SDS011;21867;52.012;4.324;2024-03-06T07:14:02;20.60;;;16.67;;
35743;SDS011;21867;52.012;4.324;2024-03-06T07:16:29;19.43;;;16.03;;
35743;SDS011;21867;52.012;4.324;2024-03-06T07:18:58;19.93;;;16.00;;
35743;SDS011;21867;52.012;4.324;2024-03-06T07:21:25;17.43;;;15.50;;
35743;SDS011;21867;52.012;4.324;2024-03-06T07:23:53;24.40;;;16.33;;
35743;SDS011;21867;52.012;4.324;2024-03-06T07:26:20;17.33;;;15.37;;
35743;SDS011;21867;52.012;4.324;2024-03-06T07:28:48;21.30;;;18.67;;
35743;SDS011;21867;52.012;4.324;2024-03-06T07:31:15;23.27;;;19.23;;
35743;SDS011;21867;52.012;4.324;2024-03-06T07:33:43;23.23;;;19.90;;
35743;SDS011;21867;52.012;4.324;2024-03-06T07:36:11;23.27;;;19.67;;
35743;SDS011;21867;52.012;4.324;2024-03-06T07:38:39;22.20;;;19.13;;
35743;SDS011;21867;52.012;4.324;2024-03-06T07:41:06;23.50;;;19.80;;
35743;SDS011;21867;52.012;4.324;2024-03-06T07:43:34;23.23;;;19.47;;
35743;SDS011;21867;52.012;4.324;2024-03-06T07:46:01;8.30;;;7.40;;
35743;SDS011;21867;52.012;4.324;2024-03-06T07:48:29;20.20;;;17.87;;
35743;SDS011;21867;52.012;4.324;2024-03-06T07:50:56;24.47;;;21.43;;
35743;SDS011;21867;52.012;4.324;2024-03-06T07:53:25;21.63;;;19.07;;
35743;SDS011;21867;52.012;4.324;2024-03-06T07:55:52;22.83;;;19.23;;
35743;SDS011;21867;52.012;4.324;2024-03-06T07:58:19;24.17;;;20.47;;
35743;SDS011;21867;52.012;4.324;2024-03-06T08:03:45;22.73;;;19.60;;
35743;SDS011;21867;52.012;4.324;2024-03-06T08:06:13;23.23;;;20.10;;
35743;SDS011;21867;52.012;4.324;2024-03-06T08:08:42;23.37;;;19.90;;
35743;SDS011;21867;52.012;4.324;2024-03-06T08:11:09;24.97;;;20.33;;
35743;SDS011;21867;52.012;4.324;2024-03-06T08:13:37;23.13;;;19.17;;
35743;SDS011;21867;52.012;4.324;2024-03-06T08:16:13;23.13;;;20.70;;
35743;SDS011;21867;52.012;4.324;2024-03-06T08:21:43;21.87;;;18.80;;
35743;SDS011;21867;52.012;4.324;2024-03-06T08:24:12;25.73;;;21.37;;
35743;SDS011;21867;52.012;4.324;2024-03-06T08:26:39;25.07;;;21.37;;
35743;SDS011;21867;52.012;4.324;2024-03-06T08:29:07;26.03;;;22.43;;
35743;SDS011;21867;52.012;4.324;2024-03-06T08:31:34;27.37;;;19.77;;
35743;SDS011;21867;52.012;4.324;2024-03-06T08:34:02;23.53;;;20.80;;
35743;SDS011;21867;52.012;4.324;2024-03-06T08:36:34;23.27;;;20.83;;
35743;SDS011;21867;52.012;4.324;2024-03-06T08:39:02;25.73;;;22.97;;
35743;SDS011;21867;52.012;4.324;2024-03-06T08:41:31;23.93;;;21.43;;
35743;SDS011;21867;52.012;4.324;2024-03-06T08:43:58;28.20;;;23.40;;
35743;SDS011;21867;52.012;4.324;2024-03-06T08:52:13;28.47;;;24.60;;
35743;SDS011;21867;52.012;4.324;2024-03-06T08:54:40;30.27;;;26.00;;
35743;SDS011;21867;52.012;4.324;2024-03-06T08:57:09;28.60;;;25.27;;
35743;SDS011;21867;52.012;4.324;2024-03-06T08:59:37;24.43;;;19.73;;
35743;SDS011;21867;52.012;4.324;2024-03-06T09:02:13;24.70;;;21.17;;
35743;SDS011;21867;52.012;4.324;2024-03-06T09:04:41;26.83;;;22.53;;
35743;SDS011;21867;52.012;4.324;2024-03-06T09:07:09;24.33;;;21.63;;
35743;SDS011;21867;52.012;4.324;2024-03-06T09:09:37;21.20;;;19.00;;
35743;SDS011;21867;52.012;4.324;2024-03-06T09:12:05;26.80;;;23.53;;
35743;SDS011;21867;52.012;4.324;2024-03-06T09:14:35;27.27;;;21.90;;
35743;SDS011;21867;52.012;4.324;2024-03-06T09:19:52;27.80;;;22.93;;
35743;SDS011;21867;52.012;4.324;2024-03-06T09:22:34;23.70;;;21.27;;
35743;SDS011;21867;52.012;4.324;2024-03-06T09:25:02;27.23;;;23.40;;
35743;SDS011;21867;52.012;4.324;2024-03-06T09:27:29;24.43;;;21.40;;
35743;SDS011;21867;52.012;4.324;2024-03-06T09:29:58;26.50;;;22.03;;
35743;SDS011;21867;52.012;4.324;2024-03-06T09:32:26;23.70;;;21.10;;
35743;SDS011;21867;52.012;4.324;2024-03-06T09:37:35;21.37;;;18.03;;
35743;SDS011;21867;52.012;4.324;2024-03-06T09:40:03;24.53;;;21.70;;
35743;SDS011;21867;52.012;4.324;2024-03-06T09:42:31;25.57;;;20.20;;
35743;SDS011;21867;52.012;4.324;2024-03-06T09:45:13;18.63;;;16.63;;
35743;SDS011;21867;52.012;4.324;2024-03-06T09:48:27;25.07;;;16.57;;
35743;SDS011;21867;52.012;4.324;2024-03-06T09:51:10;21.53;;;17.93;;
35743;SDS011;21867;52.012;4.324;2024-03-06T09:53:37;19.00;;;16.13;;
35743;SDS011;21867;52.012;4.324;2024-03-06T09:56:05;19.13;;;16.20;;
35743;SDS011;21867;52.012;4.324;2024-03-06T09:58:33;12.57;;;11.30;;
35743;SDS011;21867;52.012;4.324;2024-03-06T10:01:02;17.80;;;13.27;;
35743;SDS011;21867;52.012;4.324;2024-03-06T10:03:29;18.57;;;14.73;;
35743;SDS011;21867;52.012;4.324;2024-03-06T10:05:56;15.40;;;12.97;;
35743;SDS011;21867;52.012;4.324;2024-03-06T10:08:27;23.27;;;14.87;;
35743;SDS011;21867;52.012;4.324;2024-03-06T10:10:55;15.50;;;11.57;;
35743;SDS011;21867;52.012;4.324;2024-03-06T10:13:23;14.27;;;12.23;;
35743;SDS011;21867;52.012;4.324;2024-03-06T10:18:40;9.53;;;8.57;;
35743;SDS011;21867;52.012;4.324;2024-03-06T10:21:07;7.20;;;6.50;;
35743;SDS011;21867;52.012;4.324;2024-03-06T10:23:35;13.70;;;11.27;;
35743;SDS011;21867;52.012;4.324;2024-03-06T10:26:02;11.93;;;10.23;;
35743;SDS011;21867;52.012;4.324;2024-03-06T10:28:30;12.10;;;10.23;;
35743;SDS011;21867;52.012;4.324;2024-03-06T10:31:03;14.03;;;11.30;;
35743;SDS011;21867;52.012;4.324;2024-03-06T10:36:35;8.90;;;8.03;;
35743;SDS011;21867;52.012;4.324;2024-03-06T10:39:02;10.87;;;6.63;;
35743;SDS011;21867;52.012;4.324;2024-03-06T10:41:30;10.63;;;8.77;;
35743;SDS011;21867;52.012;4.324;2024-03-06T10:44:11;10.47;;;9.13;;
35743;SDS011;21867;52.012;4.324;2024-03-06T10:46:53;10.40;;;9.27;;
35743;SDS011;21867;52.012;4.324;2024-03-06T10:49:30;12.13;;;8.83;;
35743;SDS011;21867;52.012;4.324;2024-03-06T10:51:59;8.20;;;6.60;;
35743;SDS011;21867;52.012;4.324;2024-03-06T10:54:27;12.60;;;9.23;;
35743;SDS011;21867;52.012;4.324;2024-03-06T10:56:55;7.03;;;6.20;;
35743;SDS011;21867;52.012;4.324;2024-03-06T10:59:23;9.60;;;8.53;;
35743;SDS011;21867;52.012;4.324;2024-03-06T11:01:52;10.30;;;8.00;;
35743;SDS011;21867;52.012;4.324;2024-03-06T11:07:10;10.67;;;9.67;;
35743;SDS011;21867;52.012;4.324;2024-03-06T11:09:41;8.60;;;7.27;;
35743;SDS011;21867;52.012;4.324;2024-03-06T11:12:08;9.13;;;6.70;;
35743;SDS011;21867;52.012;4.324;2024-03-06T11:14:36;10.73;;;6.60;;
35743;SDS011;21867;52.012;4.324;2024-03-06T11:17:04;10.60;;;7.60;;
35743;SDS011;21867;52.012;4.324;2024-03-06T11:23:21;6.63;;;5.93;;
35743;SDS011;21867;52.012;4.324;2024-03-06T11:26:01;6.47;;;5.60;;
35743;SDS011;21867;52.012;4.324;2024-03-06T11:28:29;6.63;;;5.90;;
35743;SDS011;21867;52.012;4.324;2024-03-06T11:30:57;6.27;;;5.43;;
35743;SDS011;21867;52.012;4.324;2024-03-06T11:33:28;7.07;;;6.37;;
35743;SDS011;21867;52.012;4.324;2024-03-06T11:36:14;5.83;;;5.23;;
35743;SDS011;21867;52.012;4.324;2024-03-06T11:38:48;6.50;;;5.23;;
35743;SDS011;21867;52.012;4.324;2024-03-06T11:41:17;5.73;;;5.17;;
35743;SDS011;21867;52.012;4.324;2024-03-06T11:43:48;6.37;;;5.03;;
35743;SDS011;21867;52.012;4.324;2024-03-06T11:46:15;5.50;;;4.83;;
35743;SDS011;21867;52.012;4.324;2024-03-06T11:48:51;6.07;;;4.50;;
35743;SDS011;21867;52.012;4.324;2024-03-06T11:51:40;6.30;;;5.53;;
35743;SDS011;21867;52.012;4.324;2024-03-06T11:56:57;6.73;;;5.37;;
35743;SDS011;21867;52.012;4.324;2024-03-06T11:59:43;5.60;;;4.80;;
35743;SDS011;21867;52.012;4.324;2024-03-06T12:02:10;4.50;;;4.10;;
35743;SDS011;21867;52.012;4.324;2024-03-06T12:04:47;6.67;;;4.30;;
35743;SDS011;21867;52.012;4.324;2024-03-06T12:07:15;5.77;;;5.27;;
35743;SDS011;21867;52.012;4.324;2024-03-06T12:09:48;7.50;;;5.83;;
35743;SDS011;21867;52.012;4.324;2024-03-06T12:12:17;4.10;;;3.80;;
35743;SDS011;21867;52.012;4.324;2024-03-06T12:14:55;5.33;;;4.53;;
35743;SDS011;21867;52.012;4.324;2024-03-06T12:17:22;3.10;;;2.90;;
35743;SDS011;21867;52.012;4.324;2024-03-06T12:25:25;4.93;;;4.43;;
35743;SDS011;21867;52.012;4.324;2024-03-06T12:27:54;4.33;;;3.73;;
35743;SDS011;21867;52.012;4.324;2024-03-06T12:30:22;5.63;;;4.83;;
35743;SDS011;21867;52.012;4.324;2024-03-06T12:32:56;5.00;;;4.33;;
35743;SDS011;21867;52.012;4.324;2024-03-06T12:35:23;5.13;;;4.60;;
35743;SDS011;21867;52.012;4.324;2024-03-06T12:37:57;4.97;;;4.47;;
35743;SDS011;21867;52.012;4.324;2024-03-06T12:40:24;4.80;;;4.40;;
35743;SDS011;21867;52.012;4.324;2024-03-06T12:42:52;4.50;;;3.70;;
35743;SDS011;21867;52.012;4.324;2024-03-06T12:45:20;4.00;;;3.23;;
35743;SDS011;21867;52.012;4.324;2024-03-06T12:47:47;4.63;;;4.30;;
35743;SDS011;21867;52.012;4.324;2024-03-06T12:50:27;5.50;;;4.20;;
35743;SDS011;21867;52.012;4.324;2024-03-06T12:52:55;3.50;;;3.20;;
35743;SDS011;21867;52.012;4.324;2024-03-06T12:55:23;4.03;;;3.50;;
35743;SDS011;21867;52.012;4.324;2024-03-06T12:57:50;3.60;;;3.20;;
35743;SDS011;21867;52.012;4.324;2024-03-06T13:00:17;3.37;;;3.03;;
35743;SDS011;21867;52.012;4.324;2024-03-06T13:02:46;4.07;;;3.70;;
35743;SDS011;21867;52.012;4.324;2024-03-06T13:05:14;3.90;;;3.50;;
35743;SDS011;21867;52.012;4.324;2024-03-06T13:07:41;4.60;;;4.03;;
35743;SDS011;21867;52.012;4.324;2024-03-06T13:10:09;5.33;;;4.83;;
35743;SDS011;21867;52.012;4.324;2024-03-06T13:12:37;5.23;;;3.80;;
35743;SDS011;21867;52.012;4.324;2024-03-06T13:15:05;4.10;;;3.40;;
35743;SDS011;21867;52.012;4.324;2024-03-06T13:17:33;4.80;;;4.40;;
35743;SDS011;21867;52.012;4.324;2024-03-06T13:20:03;4.33;;;4.03;;
35743;SDS011;21867;52.012;4.324;2024-03-06T13:22:40;5.03;;;4.63;;
35743;SDS011;21867;52.012;4.324;2024-03-06T13:25:07;4.50;;;4.10;;
35743;SDS011;21867;52.012;4.324;2024-03-06T13:27:35;4.17;;;3.87;;
35743;SDS011;21867;52.012;4.324;2024-03-06T13:30:02;7.43;;;4.27;;
35743;SDS011;21867;52.012;4.324;2024-03-06T13:32:31;4.23;;;3.83;;
35743;SDS011;21867;52.012;4.324;2024-03-06T13:34:59;5.17;;;3.63;;
35743;SDS011;21867;52.012;4.324;2024-03-06T13:40:25;4.40;;;4.00;;
35743;SDS011;21867;52.012;4.324;2024-03-06T13:42:52;4.33;;;3.93;;
35743;SDS011;21867;52.012;4.324;2024-03-06T13:45:20;4.77;;;4.37;;
35743;SDS011;21867;52.012;4.324;2024-03-06T13:47:47;3.40;;;3.10;;
35743;SDS011;21867;52.012;4.324;2024-03-06T13:53:08;5.13;;;4.10;;
35743;SDS011;21867;52.012;4.324;2024-03-06T13:55:37;3.90;;;3.60;;
35743;SDS011;21867;52.012;4.324;2024-03-06T13:58:04;5.20;;;4.70;;
35743;SDS011;21867;52.012;4.324;2024-03-06T14:00:31;4.63;;;4.13;;
35743;SDS011;21867;52.012;4.324;2024-03-06T14:02:59;3.23;;;2.93;;
35743;SDS011;21867;52.012;4.324;2024-03-06T14:05:26;4.10;;;3.57;;
35743;SDS011;21867;52.012;4.324;2024-03-06T14:07:53;2.87;;;2.67;;
35743;SDS011;21867;52.012;4.324;2024-03-06T14:10:21;4.00;;;3.63;;
35743;SDS011;21867;52.012;4.324;2024-03-06T14:12:50;5.63;;;3.90;;
35743;SDS011;21867;52.012;4.324;2024-03-06T14:15:17;4.77;;;4.30;;
35743;SDS011;21867;52.012;4.324;2024-03-06T14:17:50;5.30;;;4.90;;
35743;SDS011;21867;52.012;4.324;2024-03-06T14:20:29;5.53;;;4.63;;
35743;SDS011;21867;52.012;4.324;2024-03-06T14:25:43;8.03;;;7.33;;
35743;SDS011;21867;52.012;4.324;2024-03-06T14:28:12;17.00;;;15.20;;
35743;SDS011;21867;52.012;4.324;2024-03-06T14:30:39;20.93;;;18.90;;
35743;SDS011;21867;52.012;4.324;2024-03-06T14:33:07;31.00;;;18.60;;
35743;SDS011;21867;52.012;4.324;2024-03-06T14:35:34;20.77;;;18.53;;
35743;SDS011;21867;52.012;4.324;2024-03-06T14:38:02;20.47;;;18.33;;
35743;SDS011;21867;52.012;4.324;2024-03-06T14:40:29;20.97;;;18.73;;
35743;SDS011;21867;52.012;4.324;2024-03-06T14:42:57;20.50;;;17.77;;
35743;SDS011;21867;52.012;4.324;2024-03-06T14:45:26;18.20;;;16.23;;
35743;SDS011;21867;52.012;4.324;2024-03-06T14:47:56;21.73;;;17.83;;
35743;SDS011;21867;52.012;4.324;2024-03-06T14:50:29;18.80;;;16.90;;
35743;SDS011;21867;52.012;4.324;2024-03-06T14:52:57;18.83;;;16.83;;
35743;SDS011;21867;52.012;4.324;2024-03-06T14:55:24;16.63;;;14.93;;
35743;SDS011;21867;52.012;4.324;2024-03-06T14:57:51;17.97;;;16.17;;
35743;SDS011;21867;52.012;4.324;2024-03-06T15:00:19;18.63;;;16.83;;
35743;SDS011;21867;52.012;4.324;2024-03-06T15:02:49;20.00;;;17.87;;
35743;SDS011;21867;52.012;4.324;2024-03-06T15:05:16;21.80;;;19.50;;
35743;SDS011;21867;52.012;4.324;2024-03-06T15:10:20;21.43;;;16.87;;
35743;SDS011;21867;52.012;4.324;2024-03-06T15:12:47;18.80;;;16.50;;
35743;SDS011;21867;52.012;4.324;2024-03-06T15:15:15;18.43;;;16.43;;
35743;SDS011;21867;52.012;4.324;2024-03-06T15:23:35;21.23;;;18.20;;
35743;SDS011;21867;52.012;4.324;2024-03-06T15:26:02;20.20;;;16.30;;
35743;SDS011;21867;52.012;4.324;2024-03-06T15:28:30;22.33;;;19.93;;
35743;SDS011;21867;52.012;4.324;2024-03-06T15:30:57;21.53;;;18.93;;
35743;SDS011;21867;52.012;4.324;2024-03-06T15:33:25;20.47;;;18.10;;
35743;SDS011;21867;52.012;4.324;2024-03-06T15:35:52;20.63;;;18.17;;
35743;SDS011;21867;52.012;4.324;2024-03-06T15:38:20;19.13;;;16.70;;
35743;SDS011;21867;52.012;4.324;2024-03-06T15:40:48;22.23;;;19.33;;
35743;SDS011;21867;52.012;4.324;2024-03-06T15:43:16;21.80;;;17.80;;
35743;SDS011;21867;52.012;4.324;2024-03-06T15:45:44;21.00;;;18.50;;
35743;SDS011;21867;52.012;4.324;2024-03-06T15:48:24;19.33;;;16.13;;
35743;SDS011;21867;52.012;4.324;2024-03-06T15:53:46;19.30;;;16.57;;
35743;SDS011;21867;52.012;4.324;2024-03-06T15:56:15;18.93;;;16.27;;
35743;SDS011;21867;52.012;4.324;2024-03-06T15:58:42;19.17;;;16.90;;
35743;SDS011;21867;52.012;4.324;2024-03-06T16:01:10;17.90;;;15.80;;
35743;SDS011;21867;52.012;4.324;2024-03-06T16:03:37;23.00;;;16.73;;
35743;SDS011;21867;52.012;4.324;2024-03-06T16:06:05;19.10;;;14.73;;
35743;SDS011;21867;52.012;4.324;2024-03-06T16:08:57;18.83;;;16.17;;
35743;SDS011;21867;52.012;4.324;2024-03-06T16:11:25;23.00;;;17.07;;
35743;SDS011;21867;52.012;4.324;2024-03-06T16:13:53;18.97;;;16.93;;
35743;SDS011;21867;52.012;4.324;2024-03-06T16:16:27;19.23;;;16.67;;
35743;SDS011;21867;52.012;4.324;2024-03-06T16:22:30;22.00;;;18.90;;
35743;SDS011;21867;52.012;4.324;2024-03-06T16:24:58;21.53;;;17.83;;
35743;SDS011;21867;52.012;4.324;2024-03-06T16:27:27;23.37;;;20.90;;
35743;SDS011;21867;52.012;4.324;2024-03-06T16:29:54;24.70;;;20.57;;